Vers la page d'accueil de NAV CANADA Ouverture d'une nouvelle session Chercher sur le site AWWS Clause de non-reponsabilité To the equivalent English page Trucs et astuces FAQ Quoi de neuf sur le site Vers la section Prévisions et observations / NOTAM Vers le site web pour <<Déposer un plan de vol>> Publications et liens importants Mise à jour du profil d'usager Numéros de téléphone des FIC Mes données météo personnelles Données météo de route Données météo régionales Données météo locales Vers la section Prévisions et observations / NOTAM
Requête générée le 2019/03/19 à 23:05:30 UTC. L'information météorologique disponible à ce moment est affichée.

METAR/TAF

Si vous notez des différences entre le METAR/TAF codé et le METAR/TAF en langage clair, veuillez utiliser la version codée. Les bulletins LWIS ne sont pas décodés en langage clair.

SHERBROOKE/QC    (voir Cam météo)

METAR CYSC 192300Z AUTO 28004KT 9SM CLR M04/M17 A3033 RMK SLP290=
METAR
LIEU
CYSC - SHERBROOKE/QC
DATE - HEURE
19 MARS 2019 - 2300 UTC
VENT
280 VRAIS @ 4  NOEUDS
VISIBILITE
9 MILLES TERR.
PORTEE VISUELLE DE PISTE
METEO
NEBULOSITE
CIEL DEGAGE
TEMP / PT DE ROSEE
-4 C / -17 C
ALTIMETRE
30.33 PO HG
TEMPS RECENT
CISAILLEMENT

METAR CYSC 192200Z AUTO 27010G15KT 9SM FEW240 M03/M18 A3032 RMK SLP288=
METAR
LIEU
CYSC - SHERBROOKE/QC
DATE - HEURE
19 MARS 2019 - 2200 UTC
VENT
270 VRAIS @ 10  NOEUDS
RAFALES
15 NOEUDS
VISIBILITE
9 MILLES TERR.
PORTEE VISUELLE DE PISTE
METEO
NEBULOSITE
QUELQUES NUAGES (1/8 - 2/8) 24000  PI
TEMP / PT DE ROSEE
-3 C / -18 C
ALTIMETRE
30.32 PO HG
TEMPS RECENT
CISAILLEMENT

METAR CYSC 192100Z AUTO 29010G16KT 9SM FEW250 M03/M17 A3031 RMK SLP283=
METAR
LIEU
CYSC - SHERBROOKE/QC
DATE - HEURE
19 MARS 2019 - 2100 UTC
VENT
290 VRAIS @ 10  NOEUDS
RAFALES
16 NOEUDS
VISIBILITE
9 MILLES TERR.
PORTEE VISUELLE DE PISTE
METEO
NEBULOSITE
QUELQUES NUAGES (1/8 - 2/8) 25000  PI
TEMP / PT DE ROSEE
-3 C / -17 C
ALTIMETRE
30.31 PO HG
TEMPS RECENT
CISAILLEMENT

TAF CYSC 191740Z 1918/2003 26010KT P6SM SKC BECMG 1923/2001 VRB03KT RMK FCST BASED ON AUTO OBS. NXT FCST BY 200000Z=
TAF
LIEU

CYSC - SHERBROOKE/QC
VALIDITE [UTC]
19 MAR - 1740 à
20 MAR - 0300
 
PERIODES
[UTC]
VENT
[DEGRES VRAIS]
VISIBILITE
[MILLES TERR.]
METEO
NEBULOSITE
[PIEDS AGL]
 
19 MAR - 1800 à
20 MAR - 0300
260 @ 10 NOEUDS
6+
---
CIEL DEGAGE
CHANGEMENTS GRADUELS
19 MAR - 2300 à
20 MAR - 0100
VARIABLE @ 3 NOEUDS
 
 
 
REMARQUES
LA PREVISION EST FONDEE SUR DES OBSERVATIONS AUTOMATISEES - LA PREVISION SUIVANTE SERA EMISE POUR 0000 UTC LE 20


Votre heure Heure UTC
Données météorologiques fournies par Environnement Canada et NAV CANADA